Time;durP1;ratioP1;P1;durP2;ratioP2;P2;SDS_P1;SDS_P2;PMS_P1;PMS_P2;Temp;Humidity;BMP_temperature;BMP_pressure;BME280_temperature;BME280_humidity;BME280_pressure;Samples;Min_cycle;Max_cycle;Signal;HPM_P1;HPM_P2
2021/06/05 00:00:17;;;;;;;20.47;18.87;;;;;;;;;;5134739;27;20469;-60
2021/06/05 00:02:43;;;;;;;19.47;18.00;;;;;;;;;;5134843;27;20429;-60
2021/06/05 00:05:11;;;;;;;21.37;19.67;;;;;;;;;;5134851;27;20436;-60
2021/06/05 00:07:37;;;;;;;20.60;18.90;;;;;;;;;;5134628;27;20447;-58
2021/06/05 00:10:07;;;;;;;20.67;19.07;;;;;;;;;;5134943;27;20461;-60
2021/06/05 00:12:34;;;;;;;21.07;19.37;;;;;;;;;;5134928;28;20420;-60
2021/06/05 00:15:00;;;;;;;21.03;19.40;;;;;;;;;;5134746;28;20436;-60
2021/06/05 00:17:27;;;;;;;22.50;20.63;;;;;;;;;;5134946;28;20432;-60
2021/06/05 00:19:54;;;;;;;22.13;20.20;;;;;;;;;;5135043;28;20841;-60
2021/06/05 00:22:21;;;;;;;22.00;20.20;;;;;;;;;;5134582;28;20437;-60
2021/06/05 00:24:47;;;;;;;22.87;21.07;;;;;;;;;;5134097;28;20440;-60
2021/06/05 00:27:15;;;;;;;23.53;21.50;;;;;;;;;;5134373;28;20440;-60
2021/06/05 00:29:42;;;;;;;24.30;22.40;;;;;;;;;;5134021;28;20456;-60
2021/06/05 00:32:09;;;;;;;22.43;20.60;;;;;;;;;;5133981;28;20480;-60
2021/06/05 00:34:36;;;;;;;25.27;23.00;;;;;;;;;;5133644;28;20812;-59
2021/06/05 00:37:03;;;;;;;23.10;21.30;;;;;;;;;;5133796;28;21000;-60
2021/06/05 00:39:29;;;;;;;22.43;20.50;;;;;;;;;;5134485;28;20468;-60
2021/06/05 00:41:56;;;;;;;24.43;22.33;;;;;;;;;;5134018;28;20441;-60
2021/06/05 00:44:24;;;;;;;23.73;21.73;;;;;;;;;;5134122;28;20459;-59
2021/06/05 00:46:51;;;;;;;22.10;20.20;;;;;;;;;;5134263;28;20928;-60
2021/06/05 00:49:18;;;;;;;23.23;21.30;;;;;;;;;;5134002;28;20464;-60
2021/06/05 00:51:46;;;;;;;22.80;21.10;;;;;;;;;;5133584;28;21051;-59
2021/06/05 00:54:14;;;;;;;24.00;21.90;;;;;;;;;;5133920;28;20493;-59
2021/06/05 00:56:42;;;;;;;25.27;23.00;;;;;;;;;;5133933;28;20448;-59
2021/06/05 00:59:09;;;;;;;26.03;23.93;;;;;;;;;;5133923;28;20461;-59
2021/06/05 01:01:37;;;;;;;25.87;23.87;;;;;;;;;;5133990;28;20464;-60
2021/06/05 01:04:04;;;;;;;28.03;25.63;;;;;;;;;;5134450;28;20448;-60
2021/06/05 01:06:32;;;;;;;26.83;24.50;;;;;;;;;;5133740;28;20460;-60
2021/06/05 01:09:02;;;;;;;25.93;23.80;;;;;;;;;;5134666;28;20456;-60
2021/06/05 01:11:33;;;;;;;26.53;24.53;;;;;;;;;;5133903;28;20468;-60
2021/06/05 01:14:03;;;;;;;28.03;25.63;;;;;;;;;;5133766;28;20436;-60
2021/06/05 01:16:30;;;;;;;29.00;26.13;;;;;;;;;;5133680;27;20466;-60
2021/06/05 01:19:00;;;;;;;27.03;24.77;;;;;;;;;;5137176;27;20472;-59
2021/06/05 01:21:42;;;;;;;27.30;25.00;;;;;;;;;;5137593;27;20416;-59
2021/06/05 01:24:13;;;;;;;27.50;25.27;;;;;;;;;;5137622;27;20493;-60
2021/06/05 01:26:42;;;;;;;28.10;25.63;;;;;;;;;;5137143;27;20896;-59
2021/06/05 01:29:13;;;;;;;30.20;27.67;;;;;;;;;;5137456;27;20468;-60
2021/06/05 01:31:41;;;;;;;29.40;27.00;;;;;;;;;;5137145;27;20468;-59
2021/06/05 01:34:07;;;;;;;28.93;26.47;;;;;;;;;;5136925;27;20948;-59
2021/06/05 01:36:35;;;;;;;28.97;26.47;;;;;;;;;;5136795;27;20445;-59
2021/06/05 01:39:05;;;;;;;30.50;28.00;;;;;;;;;;5137092;27;20882;-59
2021/06/05 01:41:32;;;;;;;31.53;28.47;;;;;;;;;;5136803;27;20919;-59
2021/06/05 01:44:01;;;;;;;30.20;27.70;;;;;;;;;;5137067;27;20445;-59
2021/06/05 01:46:30;;;;;;;30.53;27.70;;;;;;;;;;5137875;27;20505;-58
2021/06/05 01:48:57;;;;;;;31.27;28.57;;;;;;;;;;5138397;27;20831;-61
2021/06/05 01:51:24;;;;;;;32.13;29.40;;;;;;;;;;5138325;27;20472;-60
2021/06/05 01:53:52;;;;;;;31.33;28.80;;;;;;;;;;5138578;27;20477;-59
2021/06/05 01:56:21;;;;;;;29.60;27.13;;;;;;;;;;5138572;27;20455;-59
2021/06/05 01:58:48;;;;;;;30.97;28.47;;;;;;;;;;5138496;27;20436;-59
2021/06/05 02:01:17;;;;;;;31.73;28.80;;;;;;;;;;5138939;27;20432;-60
2021/06/05 02:03:44;;;;;;;30.33;27.83;;;;;;;;;;5138715;27;20962;-59
2021/06/05 02:06:11;;;;;;;32.70;30.00;;;;;;;;;;5138359;27;20932;-59
2021/06/05 02:08:38;;;;;;;31.70;28.97;;;;;;;;;;5138572;27;20445;-60
2021/06/05 02:11:07;;;;;;;29.70;27.10;;;;;;;;;;5138219;27;20853;-59
2021/06/05 02:13:38;;;;;;;31.93;29.17;;;;;;;;;;5138546;27;20524;-60
2021/06/05 02:16:07;;;;;;;30.20;27.67;;;;;;;;;;5138172;27;20425;-59
2021/06/05 02:18:37;;;;;;;30.13;27.60;;;;;;;;;;5137519;27;20575;-61
2021/06/05 02:21:06;;;;;;;32.63;29.77;;;;;;;;;;5138484;27;20421;-59
2021/06/05 02:23:35;;;;;;;31.43;28.63;;;;;;;;;;5138442;27;20436;-59
2021/06/05 02:26:02;;;;;;;32.53;29.77;;;;;;;;;;5138463;27;20452;-59
2021/06/05 02:28:29;;;;;;;31.80;29.10;;;;;;;;;;5137681;27;20494;-59
2021/06/05 02:30:56;;;;;;;31.23;28.53;;;;;;;;;;5138205;27;20544;-59
2021/06/05 02:33:23;;;;;;;31.70;28.80;;;;;;;;;;5160931;22;20557;-56
2021/06/05 02:35:54;;;;;;;31.60;28.80;;;;;;;;;;5135984;27;20494;-56
2021/06/05 02:38:21;;;;;;;30.90;28.03;;;;;;;;;;5136022;27;20433;-56
2021/06/05 02:40:49;;;;;;;32.00;29.10;;;;;;;;;;5135851;27;20437;-56
2021/06/05 02:43:17;;;;;;;33.00;30.20;;;;;;;;;;5135782;27;20455;-56
2021/06/05 02:45:46;;;;;;;32.00;29.20;;;;;;;;;;5135527;27;20447;-56
2021/06/05 02:48:13;;;;;;;30.63;28.10;;;;;;;;;;5135759;27;20432;-56
2021/06/05 02:50:41;;;;;;;31.77;28.93;;;;;;;;;;5135670;27;20503;-56
2021/06/05 02:53:09;;;;;;;32.37;29.47;;;;;;;;;;5135554;27;20460;-56
2021/06/05 02:55:36;;;;;;;32.40;29.40;;;;;;;;;;5135604;27;20467;-55
2021/06/05 02:58:05;;;;;;;32.00;29.00;;;;;;;;;;5135532;27;20517;-55
2021/06/05 03:00:34;;;;;;;33.40;29.40;;;;;;;;;;5135466;27;20476;-57
2021/06/05 03:03:01;;;;;;;32.50;29.40;;;;;;;;;;5135051;27;20468;-55
2021/06/05 03:05:29;;;;;;;28.73;26.17;;;;;;;;;;5135063;27;20936;-57
2021/06/05 03:07:56;;;;;;;31.30;28.67;;;;;;;;;;5134939;27;20448;-57
2021/06/05 03:10:25;;;;;;;29.50;26.83;;;;;;;;;;5135252;27;20448;-57
2021/06/05 03:12:52;;;;;;;29.60;27.00;;;;;;;;;;5135064;27;20480;-57
2021/06/05 03:15:20;;;;;;;29.30;26.50;;;;;;;;;;5134811;27;20493;-57
2021/06/05 03:17:47;;;;;;;29.47;26.90;;;;;;;;;;5135118;27;20441;-57
2021/06/05 03:20:16;;;;;;;28.33;25.87;;;;;;;;;;5135179;27;20440;-57
2021/06/05 03:22:43;;;;;;;29.13;26.43;;;;;;;;;;5134940;27;20492;-57
2021/06/05 03:25:10;;;;;;;30.70;28.03;;;;;;;;;;5134640;27;20448;-57
2021/06/05 03:27:38;;;;;;;28.80;26.30;;;;;;;;;;5135033;27;20993;-56
2021/06/05 03:30:06;;;;;;;27.37;24.90;;;;;;;;;;5134982;27;20445;-57
2021/06/05 03:32:33;;;;;;;28.87;26.43;;;;;;;;;;5134536;27;20484;-57
2021/06/05 03:35:00;;;;;;;25.10;23.00;;;;;;;;;;5134848;27;20449;-57
2021/06/05 03:37:26;;;;;;;27.73;25.50;;;;;;;;;;5134858;27;20571;-57
2021/06/05 03:39:53;;;;;;;26.73;24.43;;;;;;;;;;5134083;27;20962;-56
2021/06/05 03:42:20;;;;;;;26.27;24.07;;;;;;;;;;5134407;27;20460;-56
2021/06/05 03:44:48;;;;;;;28.10;25.70;;;;;;;;;;5134389;27;20448;-56
2021/06/05 03:47:19;;;;;;;25.27;23.27;;;;;;;;;;5134702;27;20437;-56
2021/06/05 03:49:45;;;;;;;24.73;22.67;;;;;;;;;;5134375;27;20429;-56
2021/06/05 03:52:12;;;;;;;25.80;23.60;;;;;;;;;;5134460;27;20476;-56
2021/06/05 03:54:39;;;;;;;26.30;24.10;;;;;;;;;;5134244;27;20443;-56
2021/06/05 03:57:06;;;;;;;26.33;24.07;;;;;;;;;;5134518;27;20436;-57
2021/06/05 03:59:33;;;;;;;25.37;23.17;;;;;;;;;;5134103;27;20456;-57
2021/06/05 04:02:01;;;;;;;24.97;22.67;;;;;;;;;;5134338;27;20668;-57
2021/06/05 04:04:28;;;;;;;23.83;21.80;;;;;;;;;;5135862;27;20449;-57
2021/06/05 04:08:12;;;;;;;23.53;21.53;;;;;;;;;;5194789;27;21008;-56
2021/06/05 04:10:39;;;;;;;24.30;22.30;;;;;;;;;;5172955;27;20938;-56
2021/06/05 04:13:06;;;;;;;24.43;21.90;;;;;;;;;;5158653;27;20487;-56
2021/06/05 04:15:34;;;;;;;22.13;20.20;;;;;;;;;;5151943;27;20484;-56
2021/06/05 04:18:01;;;;;;;23.43;21.50;;;;;;;;;;5152286;27;20431;-56
2021/06/05 04:20:28;;;;;;;24.27;22.17;;;;;;;;;;5152206;27;20482;-56
2021/06/05 04:22:55;;;;;;;24.03;22.13;;;;;;;;;;5152078;27;20456;-56
2021/06/05 04:25:23;;;;;;;24.60;22.63;;;;;;;;;;5151660;27;20810;-57
2021/06/05 04:27:50;;;;;;;24.10;22.20;;;;;;;;;;5151979;27;20475;-57
2021/06/05 04:30:17;;;;;;;23.63;21.43;;;;;;;;;;5151981;27;20450;-56
2021/06/05 04:32:44;;;;;;;23.60;21.70;;;;;;;;;;5151887;27;20520;-56
2021/06/05 04:35:11;;;;;;;22.10;20.30;;;;;;;;;;5181570;22;20477;-57
2021/06/05 04:37:38;;;;;;;22.90;21.10;;;;;;;;;;5110304;28;20908;-57
2021/06/05 04:40:05;;;;;;;22.07;20.27;;;;;;;;;;5110618;28;20445;-57
2021/06/05 04:42:33;;;;;;;22.37;20.43;;;;;;;;;;5110355;28;20476;-58
2021/06/05 04:45:00;;;;;;;21.93;20.10;;;;;;;;;;5110485;28;20450;-58
2021/06/05 04:47:27;;;;;;;21.80;19.80;;;;;;;;;;5110164;28;20473;-58
2021/06/05 04:49:54;;;;;;;20.03;18.33;;;;;;;;;;5141528;22;20496;-56
2021/06/05 04:52:24;;;;;;;21.00;19.10;;;;;;;;;;5130592;28;20992;-56
2021/06/05 04:54:50;;;;;;;21.90;20.10;;;;;;;;;;5130881;28;20472;-57
2021/06/05 04:57:17;;;;;;;21.00;19.20;;;;;;;;;;5130756;28;20438;-58
2021/06/05 04:59:45;;;;;;;23.60;21.40;;;;;;;;;;5130993;28;20460;-56
2021/06/05 05:02:12;;;;;;;21.60;19.70;;;;;;;;;;5130466;28;20950;-56
2021/06/05 05:04:43;;;;;;;22.00;20.30;;;;;;;;;;5130403;28;20440;-56
2021/06/05 05:07:10;;;;;;;22.77;21.07;;;;;;;;;;5130587;28;20496;-58
2021/06/05 05:09:36;;;;;;;21.33;19.53;;;;;;;;;;5130166;28;20996;-56
2021/06/05 05:12:03;;;;;;;21.13;19.33;;;;;;;;;;5130132;28;20439;-57
2021/06/05 05:14:30;;;;;;;19.93;18.30;;;;;;;;;;5130145;28;20441;-57
2021/06/05 05:16:58;;;;;;;21.90;19.97;;;;;;;;;;5130128;28;20438;-56
2021/06/05 05:19:25;;;;;;;20.00;18.30;;;;;;;;;;5118578;28;20477;-56
2021/06/05 05:21:52;;;;;;;21.80;20.00;;;;;;;;;;5116622;28;20446;-56
2021/06/05 05:24:19;;;;;;;21.37;19.67;;;;;;;;;;5116590;28;20441;-56
2021/06/05 05:26:45;;;;;;;21.60;19.63;;;;;;;;;;5116501;28;20484;-56
2021/06/05 05:29:12;;;;;;;21.33;19.63;;;;;;;;;;5116472;28;20468;-56
2021/06/05 05:31:39;;;;;;;22.57;20.60;;;;;;;;;;5116184;28;20454;-56
2021/06/05 05:34:07;;;;;;;22.13;20.27;;;;;;;;;;5116127;28;20492;-56
2021/06/05 05:36:36;;;;;;;20.60;19.00;;;;;;;;;;5116367;28;20441;-56
2021/06/05 05:39:04;;;;;;;22.43;20.37;;;;;;;;;;5116327;28;20441;-56
2021/06/05 05:41:31;;;;;;;20.63;18.83;;;;;;;;;;5116261;28;20449;-55
2021/06/05 05:43:58;;;;;;;19.80;18.20;;;;;;;;;;5115872;28;20928;-56
2021/06/05 05:46:24;;;;;;;20.90;19.13;;;;;;;;;;5115804;28;20478;-56
2021/06/05 05:48:52;;;;;;;20.40;18.50;;;;;;;;;;5115852;28;20460;-57
2021/06/05 05:51:21;;;;;;;20.87;18.87;;;;;;;;;;5116894;28;20473;-56
2021/06/05 05:53:47;;;;;;;18.70;17.10;;;;;;;;;;5116096;28;20453;-57
2021/06/05 05:56:15;;;;;;;19.73;18.13;;;;;;;;;;5115953;28;20438;-56
2021/06/05 05:58:42;;;;;;;19.63;17.70;;;;;;;;;;5115932;28;20854;-57
2021/06/05 06:01:11;;;;;;;19.80;18.20;;;;;;;;;;5115442;28;20462;-56
2021/06/05 06:03:38;;;;;;;20.73;18.93;;;;;;;;;;5115766;28;20452;-56
2021/06/05 06:06:06;;;;;;;17.90;16.60;;;;;;;;;;5115644;28;20493;-57
2021/06/05 06:08:34;;;;;;;20.77;18.80;;;;;;;;;;5115578;28;20494;-57
2021/06/05 06:11:01;;;;;;;20.67;18.60;;;;;;;;;;5115489;28;20480;-57
2021/06/05 06:13:28;;;;;;;19.83;18.17;;;;;;;;;;5115673;28;20439;-57
2021/06/05 06:15:55;;;;;;;18.83;17.43;;;;;;;;;;5115699;28;20441;-57
2021/06/05 06:18:22;;;;;;;18.70;17.27;;;;;;;;;;5115556;28;20442;-57
2021/06/05 06:20:49;;;;;;;18.60;17.00;;;;;;;;;;5115496;28;20527;-57
2021/06/05 06:23:20;;;;;;;18.67;17.07;;;;;;;;;;5115442;28;20444;-57
2021/06/05 06:25:50;;;;;;;19.80;18.07;;;;;;;;;;5115150;28;20420;-57
2021/06/05 06:28:18;;;;;;;19.73;17.93;;;;;;;;;;5115001;28;20541;-57
2021/06/05 06:30:45;;;;;;;20.43;18.73;;;;;;;;;;5114315;28;20512;-57
2021/06/05 06:33:14;;;;;;;19.63;17.90;;;;;;;;;;5115557;28;20452;-58
2021/06/05 06:35:41;;;;;;;19.63;17.87;;;;;;;;;;5115411;28;20807;-58
2021/06/05 06:38:10;;;;;;;18.67;17.07;;;;;;;;;;5115158;28;20448;-57
2021/06/05 06:40:38;;;;;;;18.27;16.60;;;;;;;;;;5114871;28;20475;-57
2021/06/05 06:43:07;;;;;;;19.87;17.83;;;;;;;;;;5114889;28;20444;-56
2021/06/05 06:45:34;;;;;;;18.23;16.40;;;;;;;;;;5115060;28;20448;-56
2021/06/05 06:48:01;;;;;;;18.27;16.67;;;;;;;;;;5114653;28;20848;-58
2021/06/05 06:50:29;;;;;;;19.80;18.00;;;;;;;;;;5114340;28;20512;-58
2021/06/05 06:52:56;;;;;;;18.93;17.13;;;;;;;;;;5114766;28;20510;-57
2021/06/05 06:55:23;;;;;;;17.63;16.13;;;;;;;;;;5114814;28;20793;-57
2021/06/05 07:00:24;;;;;;;19.20;17.43;;;;;;;;;;5034001;28;20480;-58
2021/06/05 07:02:51;;;;;;;19.23;17.60;;;;;;;;;;5033631;28;20440;-58
2021/06/05 07:05:18;;;;;;;19.30;17.70;;;;;;;;;;5034151;28;20506;-57
2021/06/05 07:07:45;;;;;;;17.60;16.00;;;;;;;;;;5033899;28;20999;-57
2021/06/05 07:10:14;;;;;;;17.70;16.23;;;;;;;;;;5033832;28;20946;-58
2021/06/05 07:12:40;;;;;;;18.50;16.90;;;;;;;;;;5033943;28;20818;-59
2021/06/05 07:15:07;;;;;;;17.23;15.83;;;;;;;;;;5034088;28;20451;-57
2021/06/05 07:17:36;;;;;;;17.03;15.73;;;;;;;;;;5033928;28;20441;-57
2021/06/05 07:20:02;;;;;;;16.40;14.90;;;;;;;;;;5033608;28;21054;-59
2021/06/05 07:25:00;;;;;;;17.83;16.23;;;;;;;;;;5096393;23;20982;-57
2021/06/05 07:27:26;;;;;;;16.90;15.27;;;;;;;;;;5073608;28;20533;-56
2021/06/05 07:29:53;;;;;;;16.93;15.07;;;;;;;;;;5075066;28;20449;-57
2021/06/05 07:32:20;;;;;;;16.23;14.93;;;;;;;;;;5072958;28;20821;-57
2021/06/05 07:34:48;;;;;;;15.50;14.30;;;;;;;;;;5073253;28;20474;-58
2021/06/05 07:37:19;;;;;;;16.73;15.13;;;;;;;;;;5073434;28;20435;-57
2021/06/05 07:39:46;;;;;;;17.20;15.60;;;;;;;;;;5073601;28;20837;-57
2021/06/05 07:42:14;;;;;;;18.40;16.80;;;;;;;;;;5073142;28;20447;-57
2021/06/05 07:44:40;;;;;;;19.13;17.43;;;;;;;;;;5073487;28;20465;-56
2021/06/05 07:47:07;;;;;;;17.53;16.10;;;;;;;;;;5072724;28;20492;-56
2021/06/05 07:49:35;;;;;;;18.17;16.43;;;;;;;;;;5111698;22;20497;-58
2021/06/05 07:52:04;;;;;;;17.47;15.83;;;;;;;;;;5072794;28;20844;-57
2021/06/05 07:54:31;;;;;;;17.50;16.10;;;;;;;;;;5073058;28;20508;-59
2021/06/05 07:56:58;;;;;;;17.93;16.50;;;;;;;;;;5073362;28;20440;-58
2021/06/05 07:59:28;;;;;;;18.50;16.67;;;;;;;;;;5072676;28;20478;-58
2021/06/05 08:01:55;;;;;;;17.60;16.10;;;;;;;;;;5072888;28;20442;-59
2021/06/05 08:04:22;;;;;;;18.60;16.73;;;;;;;;;;5073139;28;20472;-58
2021/06/05 08:06:50;;;;;;;18.90;17.33;;;;;;;;;;5073028;28;20572;-59
2021/06/05 08:09:18;;;;;;;17.87;16.40;;;;;;;;;;5073141;28;20469;-58
2021/06/05 08:11:44;;;;;;;19.23;17.40;;;;;;;;;;5072613;28;20438;-58
2021/06/05 08:14:11;;;;;;;17.63;16.03;;;;;;;;;;5073608;28;20460;-58
2021/06/05 08:16:39;;;;;;;16.93;15.43;;;;;;;;;;5072753;28;20446;-58
2021/06/05 08:19:07;;;;;;;17.23;15.53;;;;;;;;;;5072501;28;20974;-60
2021/06/05 08:21:34;;;;;;;18.73;17.23;;;;;;;;;;5107723;22;20585;-56
2021/06/05 08:24:01;;;;;;;17.70;16.00;;;;;;;;;;5072855;28;20442;-56
2021/06/05 08:26:29;;;;;;;16.63;15.33;;;;;;;;;;5072765;28;20444;-57
2021/06/05 08:28:56;;;;;;;17.40;15.70;;;;;;;;;;5072697;28;20943;-56
2021/06/05 08:31:23;;;;;;;18.50;16.60;;;;;;;;;;5072718;28;20497;-56
2021/06/05 08:33:50;;;;;;;18.77;17.17;;;;;;;;;;5072560;28;20958;-56
2021/06/05 08:36:18;;;;;;;19.60;18.00;;;;;;;;;;5072410;28;20500;-56
2021/06/05 08:38:45;;;;;;;19.10;17.30;;;;;;;;;;5072857;28;20489;-56
2021/06/05 08:41:15;;;;;;;17.90;16.40;;;;;;;;;;5072340;28;20460;-56
2021/06/05 08:43:46;;;;;;;17.70;16.30;;;;;;;;;;5072781;28;20434;-58
2021/06/05 08:46:14;;;;;;;18.20;16.50;;;;;;;;;;5072603;28;20429;-58
2021/06/05 08:48:41;;;;;;;17.97;16.23;;;;;;;;;;5072438;28;20448;-58
2021/06/05 08:51:11;;;;;;;19.70;18.00;;;;;;;;;;5072214;28;20552;-58
2021/06/05 08:53:38;;;;;;;21.30;19.40;;;;;;;;;;5075225;28;20797;-58
2021/06/05 08:56:08;;;;;;;19.00;17.13;;;;;;;;;;5075964;28;20912;-58
2021/06/05 08:58:36;;;;;;;19.10;17.20;;;;;;;;;;5075969;28;20503;-58
2021/06/05 09:01:06;;;;;;;18.67;17.27;;;;;;;;;;5075718;28;20975;-58
2021/06/05 09:03:35;;;;;;;20.27;18.67;;;;;;;;;;5095613;22;20493;-59
2021/06/05 09:06:05;;;;;;;20.73;18.97;;;;;;;;;;5036971;28;20443;-60
2021/06/05 09:08:32;;;;;;;21.23;19.30;;;;;;;;;;5035914;28;20483;-60
2021/06/05 09:11:00;;;;;;;20.70;19.03;;;;;;;;;;5036194;28;20530;-58
2021/06/05 09:13:27;;;;;;;21.73;19.90;;;;;;;;;;5035811;28;20453;-59
2021/06/05 09:16:09;;;;;;;24.27;22.00;;;;;;;;;;5036229;28;20449;-60
2021/06/05 09:18:47;;;;;;;22.27;20.33;;;;;;;;;;5035158;28;20447;-59
2021/06/05 09:21:14;;;;;;;22.80;20.90;;;;;;;;;;5035687;28;20431;-60
2021/06/05 09:23:41;;;;;;;23.57;21.53;;;;;;;;;;5035512;28;20602;-59
2021/06/05 09:26:19;;;;;;;24.27;22.37;;;;;;;;;;5035919;28;20448;-59
2021/06/05 09:28:46;;;;;;;25.30;23.40;;;;;;;;;;5035803;28;20420;-60
2021/06/05 09:31:14;;;;;;;27.90;25.53;;;;;;;;;;5057967;22;21910;-58
2021/06/05 09:33:42;;;;;;;27.20;24.87;;;;;;;;;;5096044;28;20410;-59
2021/06/05 09:36:18;;;;;;;25.83;23.83;;;;;;;;;;5096950;28;20508;-58
2021/06/05 09:38:47;;;;;;;29.33;26.73;;;;;;;;;;5105272;22;20494;-58
2021/06/05 09:41:18;;;;;;;27.73;25.60;;;;;;;;;;5075506;28;20432;-59
2021/06/05 09:43:47;;;;;;;29.47;27.07;;;;;;;;;;5075405;28;20995;-59
2021/06/05 09:46:15;;;;;;;29.43;26.93;;;;;;;;;;5075341;28;20960;-59
2021/06/05 09:48:43;;;;;;;29.97;27.57;;;;;;;;;;5075318;28;20480;-58
2021/06/05 09:51:31;;;;;;;29.63;27.23;;;;;;;;;;5075608;28;20866;-59
2021/06/05 09:54:03;;;;;;;29.70;27.30;;;;;;;;;;5076017;28;20446;-59
2021/06/05 09:56:31;;;;;;;30.10;27.70;;;;;;;;;;5075500;28;20456;-59
2021/06/05 09:59:02;;;;;;;30.63;28.13;;;;;;;;;;5075354;28;20845;-58
2021/06/05 10:01:31;;;;;;;32.03;29.20;;;;;;;;;;5075923;28;20448;-59
2021/06/05 10:03:58;;;;;;;31.30;28.80;;;;;;;;;;5076281;28;20790;-58
2021/06/05 10:06:38;;;;;;;33.07;30.20;;;;;;;;;;5075577;28;20445;-60
2021/06/05 10:09:19;;;;;;;31.97;29.37;;;;;;;;;;5075051;28;20487;-59
2021/06/05 10:11:46;;;;;;;31.47;28.87;;;;;;;;;;5125974;22;20507;-58
2021/06/05 10:14:15;;;;;;;31.80;29.20;;;;;;;;;;5094750;28;20462;-58
2021/06/05 10:16:44;;;;;;;31.00;28.50;;;;;;;;;;5094885;28;20495;-57
2021/06/05 10:19:13;;;;;;;33.17;30.37;;;;;;;;;;5095546;28;20451;-58
2021/06/05 10:21:42;;;;;;;31.73;29.23;;;;;;;;;;5094657;28;20465;-58
2021/06/05 10:24:24;;;;;;;32.60;29.80;;;;;;;;;;5112120;22;20503;-58
2021/06/05 10:26:52;;;;;;;33.80;31.10;;;;;;;;;;5055154;28;20467;-58
2021/06/05 10:29:23;;;;;;;35.13;32.37;;;;;;;;;;5055256;28;20500;-58
2021/06/05 10:31:50;;;;;;;33.70;30.90;;;;;;;;;;5054451;28;20541;-60
2021/06/05 10:34:23;;;;;;;36.53;33.53;;;;;;;;;;5054492;28;20520;-59
2021/06/05 10:36:51;;;;;;;35.63;32.53;;;;;;;;;;5054970;28;20429;-59
2021/06/05 10:39:19;;;;;;;33.63;30.93;;;;;;;;;;5054297;28;20450;-59
2021/06/05 10:41:50;;;;;;;35.87;32.43;;;;;;;;;;5054675;28;20441;-60
2021/06/05 10:44:17;;;;;;;33.20;30.40;;;;;;;;;;5054574;28;20487;-58
2021/06/05 10:46:49;;;;;;;33.17;30.57;;;;;;;;;;5054266;28;20448;-59
2021/06/05 10:49:24;;;;;;;33.07;30.43;;;;;;;;;;5054065;28;20439;-59
2021/06/05 10:51:57;;;;;;;32.27;29.67;;;;;;;;;;5054232;28;20446;-60
2021/06/05 10:54:26;;;;;;;29.57;27.17;;;;;;;;;;5053883;28;20992;-58
2021/06/05 10:57:01;;;;;;;30.57;28.07;;;;;;;;;;5053808;28;20440;-59
2021/06/05 10:59:48;;;;;;;27.37;25.03;;;;;;;;;;5054506;28;20456;-58
2021/06/05 11:02:33;;;;;;;31.43;28.53;;;;;;;;;;5054302;28;20437;-59
2021/06/05 11:05:00;;;;;;;28.10;25.90;;;;;;;;;;5078612;22;20999;-58
2021/06/05 11:07:30;;;;;;;27.47;25.17;;;;;;;;;;5053189;28;20489;-58
2021/06/05 11:09:59;;;;;;;27.43;25.20;;;;;;;;;;5052990;28;20429;-58
2021/06/05 11:12:46;;;;;;;28.30;26.00;;;;;;;;;;5053208;28;20957;-59
2021/06/05 11:15:27;;;;;;;26.37;23.90;;;;;;;;;;5053536;28;20531;-59
2021/06/05 11:18:09;;;;;;;30.63;28.17;;;;;;;;;;5052659;28;20463;-59
2021/06/05 11:20:39;;;;;;;33.47;30.57;;;;;;;;;;5079222;22;20498;-59
2021/06/05 11:23:21;;;;;;;34.40;31.70;;;;;;;;;;5053468;28;20459;-59
2021/06/05 11:25:50;;;;;;;33.73;30.83;;;;;;;;;;5053516;28;20435;-58
2021/06/05 11:28:34;;;;;;;34.17;31.17;;;;;;;;;;5053249;28;20507;-59
2021/06/05 11:31:22;;;;;;;34.53;31.60;;;;;;;;;;5040196;28;20488;-57
2021/06/05 11:33:50;;;;;;;35.47;32.30;;;;;;;;;;5052989;28;20440;-59
2021/06/05 11:36:40;;;;;;;33.17;30.40;;;;;;;;;;5078708;22;20486;-61
2021/06/05 11:39:08;;;;;;;37.33;33.90;;;;;;;;;;5053362;28;20429;-64
2021/06/05 11:41:43;;;;;;;38.20;34.90;;;;;;;;;;5053449;28;20446;-63
2021/06/05 11:44:22;;;;;;;40.10;36.30;;;;;;;;;;5052927;28;20448;-62
2021/06/05 11:46:51;;;;;;;41.30;37.60;;;;;;;;;;5052951;28;20469;-64
2021/06/05 11:49:36;;;;;;;40.07;36.60;;;;;;;;;;5077974;22;20489;-65
2021/06/05 11:52:18;;;;;;;42.83;39.17;;;;;;;;;;5053258;28;20442;-66
2021/06/05 11:54:46;;;;;;;47.70;43.40;;;;;;;;;;5051880;28;20454;-64
2021/06/05 11:57:19;;;;;;;41.77;38.10;;;;;;;;;;5053292;28;20446;-66
2021/06/05 11:59:46;;;;;;;44.23;40.27;;;;;;;;;;5052763;28;20452;-66
2021/06/05 12:02:17;;;;;;;47.23;43.03;;;;;;;;;;5052986;28;20453;-65
2021/06/05 12:04:47;;;;;;;47.13;42.60;;;;;;;;;;5068374;22;20562;-65
2021/06/05 12:07:24;;;;;;;51.93;47.00;;;;;;;;;;5053461;28;20511;-63
2021/06/05 12:09:57;;;;;;;51.00;45.90;;;;;;;;;;5052544;28;20436;-62
2021/06/05 12:12:25;;;;;;;49.50;44.93;;;;;;;;;;5053016;28;20428;-62
2021/06/05 12:14:59;;;;;;;47.90;43.40;;;;;;;;;;5052427;28;21017;-63
2021/06/05 12:17:31;;;;;;;50.93;46.23;;;;;;;;;;5052701;28;20778;-63
2021/06/05 12:20:16;;;;;;;52.57;47.57;;;;;;;;;;5053915;28;20963;-63
2021/06/05 12:22:45;;;;;;;50.13;45.43;;;;;;;;;;5053099;28;21019;-64
2021/06/05 12:25:25;;;;;;;52.97;48.07;;;;;;;;;;5052997;28;20909;-63
2021/06/05 12:27:51;;;;;;;52.23;47.33;;;;;;;;;;5052701;28;20460;-64
2021/06/05 12:30:23;;;;;;;49.83;45.17;;;;;;;;;;5057367;28;20447;-64
2021/06/05 12:32:58;;;;;;;49.70;45.10;;;;;;;;;;5056807;28;20820;-64
2021/06/05 12:35:27;;;;;;;54.73;49.63;;;;;;;;;;5056823;28;20447;-65
2021/06/05 12:37:56;;;;;;;52.03;47.17;;;;;;;;;;5056887;28;20493;-64
2021/06/05 12:40:29;;;;;;;55.93;50.67;;;;;;;;;;5057182;28;20913;-65
2021/06/05 12:42:56;;;;;;;58.03;52.40;;;;;;;;;;5057907;28;20439;-63
2021/06/05 12:45:23;;;;;;;61.37;55.47;;;;;;;;;;5056497;28;20449;-63
2021/06/05 12:47:51;;;;;;;59.13;53.37;;;;;;;;;;5056097;28;20476;-64
2021/06/05 12:50:20;;;;;;;63.63;56.77;;;;;;;;;;5056248;28;20445;-65
2021/06/05 12:52:48;;;;;;;58.33;52.73;;;;;;;;;;5056442;28;20467;-63
2021/06/05 12:55:19;;;;;;;57.43;51.83;;;;;;;;;;5055959;28;20460;-64
2021/06/05 12:57:47;;;;;;;47.90;43.40;;;;;;;;;;5056072;28;20440;-64
2021/06/05 13:00:18;;;;;;;49.97;45.00;;;;;;;;;;5056213;28;20439;-64
2021/06/05 13:02:46;;;;;;;49.93;44.83;;;;;;;;;;5056354;28;20815;-64
2021/06/05 13:05:16;;;;;;;53.87;48.43;;;;;;;;;;5055881;28;20476;-64
2021/06/05 13:07:44;;;;;;;50.67;45.53;;;;;;;;;;5055620;28;20974;-65
2021/06/05 13:10:30;;;;;;;49.10;44.20;;;;;;;;;;5056255;28;20464;-65
2021/06/05 13:13:12;;;;;;;49.90;44.70;;;;;;;;;;5056132;28;20477;-67
2021/06/05 13:15:44;;;;;;;49.23;44.13;;;;;;;;;;5081621;22;20495;-65
2021/06/05 13:18:12;;;;;;;48.53;43.63;;;;;;;;;;5091346;22;20621;-62
2021/06/05 13:20:44;;;;;;;52.67;47.37;;;;;;;;;;5055729;28;20433;-63
2021/06/05 13:23:23;;;;;;;55.60;49.70;;;;;;;;;;5056058;28;20853;-64
2021/06/05 13:25:50;;;;;;;45.00;40.60;;;;;;;;;;5055575;28;20435;-64
2021/06/05 13:28:25;;;;;;;47.23;42.67;;;;;;;;;;5055777;28;20502;-64
2021/06/05 13:30:52;;;;;;;44.23;39.80;;;;;;;;;;5055830;28;20435;-65
2021/06/05 13:33:26;;;;;;;44.10;39.90;;;;;;;;;;5055794;28;20440;-65
2021/06/05 13:35:53;;;;;;;40.67;36.67;;;;;;;;;;5055265;28;20444;-65
2021/06/05 13:40:49;;;;;;;36.30;32.87;;;;;;;;;;5054364;28;20468;-68
2021/06/05 13:43:16;;;;;;;33.33;30.10;;;;;;;;;;5056005;28;20449;-64
2021/06/05 13:45:44;;;;;;;37.37;33.97;;;;;;;;;;5056059;28;20451;-65
2021/06/05 13:48:11;;;;;;;36.97;33.77;;;;;;;;;;5055427;28;20511;-65
2021/06/05 13:50:38;;;;;;;32.97;30.10;;;;;;;;;;5090568;22;20918;-61
2021/06/05 13:53:06;;;;;;;30.90;28.27;;;;;;;;;;5055382;28;20457;-62
2021/06/05 13:55:36;;;;;;;31.47;28.73;;;;;;;;;;5055584;28;20517;-63
2021/06/05 13:58:02;;;;;;;30.53;28.03;;;;;;;;;;5055514;28;20439;-63
2021/06/05 14:00:30;;;;;;;26.40;24.20;;;;;;;;;;5054848;28;20524;-62
2021/06/05 14:02:58;;;;;;;28.63;26.13;;;;;;;;;;5055342;28;20958;-64
2021/06/05 14:05:25;;;;;;;30.67;28.03;;;;;;;;;;5055286;28;20447;-63
2021/06/05 14:07:52;;;;;;;30.40;27.80;;;;;;;;;;5054653;28;20479;-63
2021/06/05 14:10:19;;;;;;;33.20;30.27;;;;;;;;;;5054775;28;20478;-63
2021/06/05 14:12:46;;;;;;;35.77;32.37;;;;;;;;;;5055635;28;20451;-64
2021/06/05 14:15:17;;;;;;;34.13;31.10;;;;;;;;;;5054925;28;20475;-63
2021/06/05 14:17:44;;;;;;;35.37;32.03;;;;;;;;;;5054980;28;20432;-63
2021/06/05 14:20:13;;;;;;;37.30;34.17;;;;;;;;;;5054852;28;20491;-63
2021/06/05 14:22:40;;;;;;;36.60;33.30;;;;;;;;;;5054515;28;20951;-63
2021/06/05 14:25:08;;;;;;;37.43;33.83;;;;;;;;;;5054581;28;20932;-62
2021/06/05 14:27:34;;;;;;;36.47;33.37;;;;;;;;;;5054557;28;20987;-62
2021/06/05 14:30:01;;;;;;;39.13;35.63;;;;;;;;;;5054818;28;20464;-65
2021/06/05 14:32:29;;;;;;;37.33;33.87;;;;;;;;;;5054642;28;20449;-63
2021/06/05 14:34:55;;;;;;;38.20;34.80;;;;;;;;;;5054635;28;20445;-62